createdAt,value
2023-04-09T00:00:26.109Z,7.82
2023-04-09T00:05:27.596Z,7.77
2023-04-09T00:10:29.057Z,7.77
2023-04-09T00:15:31.516Z,7.81
2023-04-09T00:20:33.456Z,7.81
2023-04-09T00:25:35.221Z,7.76
2023-04-09T00:30:36.839Z,7.72
2023-04-09T00:35:38.457Z,7.68
2023-04-09T00:40:40.984Z,7.68
2023-04-09T00:45:42.563Z,7.71
2023-04-09T00:50:44.359Z,7.76
2023-04-09T00:55:46.195Z,7.78
2023-04-09T01:00:47.749Z,7.77
2023-04-09T01:06:01.079Z,7.75
2023-04-09T01:11:39.756Z,7.76
2023-04-09T01:16:44.566Z,7.78
2023-04-09T01:21:46.495Z,7.78
2023-04-09T01:26:58.389Z,7.80
2023-04-09T01:32:03.031Z,7.75
2023-04-09T01:37:05.460Z,7.80
2023-04-09T01:42:11.080Z,7.78
2023-04-09T01:47:13.192Z,7.78
2023-04-09T01:52:14.971Z,7.79
2023-04-09T01:57:16.575Z,7.82
2023-04-09T02:02:25.734Z,7.77
2023-04-09T02:07:36.519Z,7.77
2023-04-09T02:12:40.367Z,7.76
2023-04-09T02:17:41.890Z,7.75
2023-04-09T02:22:43.368Z,7.69
2023-04-09T02:27:44.844Z,7.64
2023-04-09T02:32:46.346Z,7.66
2023-04-09T02:37:47.813Z,7.65
2023-04-09T02:42:49.317Z,7.69
2023-04-09T02:47:50.847Z,7.65
2023-04-09T02:52:52.412Z,7.67
2023-04-09T02:57:53.919Z,7.69
2023-04-09T03:02:55.534Z,7.66
2023-04-09T03:07:57.106Z,7.58
2023-04-09T03:12:58.629Z,7.57
2023-04-09T03:18:00.275Z,7.66
2023-04-09T03:23:01.811Z,7.59
2023-04-09T03:28:03.648Z,7.66
2023-04-09T03:33:05.482Z,7.66
2023-04-09T03:38:07.051Z,7.61
2023-04-09T03:43:08.615Z,7.59
2023-04-09T03:48:10.102Z,7.55
2023-04-09T03:53:11.630Z,7.48
2023-04-09T03:58:13.134Z,7.50
2023-04-09T04:03:16.529Z,7.45
2023-04-09T04:08:18.260Z,7.45
2023-04-09T04:13:19.755Z,7.44
2023-04-09T04:18:21.239Z,7.43
2023-04-09T04:23:22.761Z,7.41
2023-04-09T04:28:24.278Z,7.41
2023-04-09T04:33:25.784Z,7.38
2023-04-09T04:38:27.246Z,7.42
2023-04-09T04:43:29.240Z,7.42
2023-04-09T04:48:31.926Z,7.42
2023-04-09T04:53:33.533Z,7.42
2023-04-09T04:58:35.104Z,7.39
2023-04-09T05:03:36.694Z,7.46
2023-04-09T05:08:38.293Z,7.44
2023-04-09T05:13:39.785Z,7.47
2023-04-09T05:18:41.301Z,7.44
2023-04-09T05:23:42.784Z,7.41
2023-04-09T05:28:44.325Z,7.42
2023-04-09T05:33:46.215Z,7.39
2023-04-09T05:38:47.979Z,7.43
2023-04-09T05:43:49.563Z,7.46
2023-04-09T05:48:51.369Z,7.50
2023-04-09T05:53:53.267Z,7.55
2023-04-09T05:58:55.026Z,7.59
2023-04-09T06:03:58.528Z,7.62
2023-04-09T06:09:00.534Z,7.63
2023-04-09T06:14:02.094Z,7.65
2023-04-09T06:19:03.629Z,7.63
2023-04-09T06:24:05.426Z,7.56
2023-04-09T06:29:07.031Z,7.55
2023-04-09T06:34:08.550Z,7.51
2023-04-09T06:39:10.553Z,7.44
2023-04-09T06:44:12.071Z,7.46
2023-04-09T06:49:13.550Z,7.50
2023-04-09T06:54:15.027Z,7.52
2023-04-09T06:59:16.786Z,7.57
2023-04-09T07:04:18.650Z,7.55
2023-04-09T07:09:20.616Z,7.54
2023-04-09T07:14:22.177Z,7.53
2023-04-09T07:19:23.679Z,7.60
2023-04-09T07:24:25.210Z,7.53
2023-04-09T07:29:27.363Z,7.47
2023-04-09T07:34:29.087Z,7.48
2023-04-09T07:39:30.673Z,7.54
2023-04-09T07:44:36.521Z,7.59
2023-04-09T07:49:38.716Z,7.64
2023-04-09T07:54:40.550Z,7.61
2023-04-09T07:59:42.255Z,7.57
2023-04-09T08:04:43.995Z,7.59
2023-04-09T08:09:45.959Z,7.61
2023-04-09T08:14:47.514Z,7.58
2023-04-09T08:19:49.832Z,7.60
2023-04-09T08:24:53.013Z,7.58
2023-04-09T08:29:54.669Z,7.61
2023-04-09T08:34:56.169Z,7.66
2023-04-09T08:39:57.643Z,7.74
2023-04-09T08:44:59.230Z,7.77
2023-04-09T08:50:00.818Z,7.80
2023-04-09T08:55:02.417Z,7.89
2023-04-09T09:00:04.923Z,7.91
2023-04-09T09:05:06.689Z,7.96
2023-04-09T09:10:08.428Z,8.06
2023-04-09T09:15:29.643Z,8.10
2023-04-09T09:20:31.338Z,8.18
2023-04-09T09:25:38.506Z,8.31
2023-04-09T09:30:41.005Z,8.53
2023-04-09T09:35:54.341Z,8.75
2023-04-09T09:40:56.563Z,8.86
2023-04-09T09:45:58.521Z,9.02
2023-04-09T09:51:03.395Z,9.17
2023-04-09T09:56:06.842Z,9.29
2023-04-09T10:01:11.216Z,9.65
2023-04-09T10:06:13.547Z,9.89
2023-04-09T10:11:15.162Z,10.00
2023-04-09T10:16:17.874Z,9.96
2023-04-09T10:21:53.721Z,10.08
2023-04-09T10:26:55.607Z,9.99
2023-04-09T10:32:07.157Z,10.05
2023-04-09T10:37:13.570Z,10.27
2023-04-09T10:42:18.487Z,10.28
2023-04-09T10:47:33.728Z,10.47
2023-04-09T10:52:35.194Z,10.72
2023-04-09T10:57:36.821Z,10.92
2023-04-09T11:02:38.419Z,10.75
2023-04-09T11:07:44.191Z,10.59
2023-04-09T11:12:47.733Z,10.80
2023-04-09T11:17:49.738Z,10.99
2023-04-09T11:22:53.006Z,10.95
2023-04-09T11:27:54.747Z,11.07
2023-04-09T11:32:56.356Z,10.79
2023-04-09T11:37:57.946Z,10.78
2023-04-09T11:42:59.416Z,11.13
2023-04-09T11:48:02.503Z,11.05
2023-04-09T11:53:18.061Z,11.03
2023-04-09T11:58:23.332Z,11.22
2023-04-09T12:03:30.627Z,11.18
2023-04-09T12:08:36.197Z,11.37
2023-04-09T12:13:42.800Z,11.32
2023-04-09T12:18:44.305Z,11.38
2023-04-09T12:23:45.771Z,11.19
2023-04-09T12:28:47.589Z,11.38
2023-04-09T12:33:49.185Z,11.41
2023-04-09T12:38:51.083Z,11.58
2023-04-09T12:43:53.074Z,11.70
2023-04-09T12:48:54.708Z,11.92
2023-04-09T12:53:56.219Z,12.08
2023-04-09T12:58:57.785Z,11.65
2023-04-09T13:03:59.488Z,11.68
2023-04-09T13:09:01.158Z,12.06
2023-04-09T13:14:02.638Z,12.24
2023-04-09T13:19:04.105Z,12.19
2023-04-09T13:24:05.884Z,12.25
2023-04-09T13:29:08.206Z,12.32
2023-04-09T13:34:09.682Z,12.23
2023-04-09T13:39:11.285Z,12.27
2023-04-09T13:44:12.915Z,12.20
2023-04-09T13:49:14.435Z,12.19
2023-04-09T13:54:16.276Z,12.25
2023-04-09T13:59:18.107Z,12.27
2023-04-09T14:04:19.786Z,12.32
2023-04-09T14:09:21.282Z,12.33
2023-04-09T14:14:22.923Z,12.27
2023-04-09T14:19:24.530Z,12.19
2023-04-09T14:24:26.247Z,12.31
2023-04-09T14:29:28.175Z,12.39
2023-04-09T14:34:31.488Z,12.43
2023-04-09T14:39:33.028Z,12.49
2023-04-09T14:44:34.954Z,12.45
2023-04-09T14:49:38.622Z,12.39
2023-04-09T14:54:40.169Z,12.30
2023-04-09T14:59:41.736Z,12.28
2023-04-09T15:04:43.410Z,12.30
2023-04-09T15:09:45.027Z,12.39
2023-04-09T15:14:46.486Z,12.43
2023-04-09T15:19:48.060Z,12.46
2023-04-09T15:24:50.464Z,12.46
2023-04-09T15:29:52.112Z,12.47
2023-04-09T15:34:53.594Z,12.35
2023-04-09T15:39:55.100Z,12.26
2023-04-09T15:44:56.608Z,12.39
2023-04-09T15:49:59.148Z,12.50
2023-04-09T15:55:01.601Z,12.55
2023-04-09T16:00:03.210Z,12.60
2023-04-09T16:05:06.129Z,12.70
2023-04-09T16:10:08.264Z,12.73
2023-04-09T16:15:11.217Z,12.67
2023-04-09T16:20:12.778Z,12.58
2023-04-09T16:25:14.364Z,12.65
2023-04-09T16:30:15.931Z,12.64
2023-04-09T16:35:17.513Z,12.65
2023-04-09T16:40:24.164Z,12.68
2023-04-09T16:45:25.800Z,12.73
2023-04-09T16:50:27.563Z,12.71
2023-04-09T16:55:29.273Z,12.66
2023-04-09T17:00:31.269Z,12.65
2023-04-09T17:05:32.949Z,12.64
2023-04-09T17:10:36.760Z,12.59
2023-04-09T17:15:38.337Z,12.55
2023-04-09T17:20:39.849Z,12.53
2023-04-09T17:25:41.502Z,12.49
2023-04-09T17:30:43.449Z,12.45
2023-04-09T17:35:45.028Z,12.33
2023-04-09T17:40:46.969Z,12.30
2023-04-09T17:45:49.216Z,12.28
2023-04-09T17:50:51.259Z,12.27
2023-04-09T17:55:52.864Z,12.17
2023-04-09T18:00:55.452Z,12.04
2023-04-09T18:05:57.085Z,11.85
2023-04-09T18:11:11.433Z,11.76
2023-04-09T18:16:14.660Z,11.55
2023-04-09T18:21:16.429Z,11.37
2023-04-09T18:26:17.914Z,11.22
2023-04-09T18:31:19.392Z,11.19
2023-04-09T18:36:20.974Z,11.18
2023-04-09T18:41:26.605Z,11.13
2023-04-09T18:46:28.710Z,11.08
2023-04-09T18:51:31.685Z,11.03
2023-04-09T18:56:33.663Z,11.01
2023-04-09T19:01:35.184Z,11.00
2023-04-09T19:06:37.456Z,10.90
2023-04-09T19:11:38.929Z,10.86
2023-04-09T19:16:40.909Z,10.76
2023-04-09T19:21:42.466Z,10.72
2023-04-09T19:26:44.104Z,10.68
2023-04-09T19:31:46.308Z,10.64
2023-04-09T19:36:47.921Z,10.58
2023-04-09T19:41:50.312Z,10.55
2023-04-09T19:46:51.805Z,10.50
2023-04-09T19:51:53.357Z,10.45
2023-04-09T19:56:56.037Z,10.41
2023-04-09T20:01:59.758Z,10.38
2023-04-09T20:07:04.099Z,10.35
2023-04-09T20:12:08.633Z,10.35
2023-04-09T20:17:10.685Z,10.37
2023-04-09T20:22:12.260Z,10.40
2023-04-09T20:27:13.960Z,10.38
2023-04-09T20:32:15.475Z,10.32
2023-04-09T20:37:17.011Z,10.29
2023-04-09T20:42:18.474Z,10.27
2023-04-09T20:47:23.124Z,10.20
2023-04-09T20:52:28.127Z,10.20
2023-04-09T20:57:29.701Z,10.18
2023-04-09T21:02:31.354Z,10.15
2023-04-09T21:07:32.985Z,10.11
2023-04-09T21:12:34.695Z,10.11
2023-04-09T21:17:36.326Z,10.09
2023-04-09T21:22:37.962Z,10.05
2023-04-09T21:27:39.514Z,10.04
2023-04-09T21:32:41.043Z,10.04
2023-04-09T21:37:42.626Z,9.99
2023-04-09T21:42:44.227Z,9.97
2023-04-09T21:47:46.143Z,9.99
2023-04-09T21:52:47.692Z,9.98
2023-04-09T21:57:49.216Z,9.95
2023-04-09T22:02:51.113Z,9.87
2023-04-09T22:07:52.644Z,9.84
2023-04-09T22:12:54.456Z,9.81
2023-04-09T22:17:56.187Z,9.74
2023-04-09T22:22:57.805Z,9.70
2023-04-09T22:27:59.279Z,9.67
2023-04-09T22:33:02.208Z,9.64
2023-04-09T22:38:04.045Z,9.61
2023-04-09T22:43:05.695Z,9.57
2023-04-09T22:48:07.795Z,9.54
2023-04-09T22:53:09.326Z,9.52
2023-04-09T22:58:11.037Z,9.48
2023-04-09T23:03:12.891Z,9.45
2023-04-09T23:08:14.582Z,9.39
2023-04-09T23:13:18.007Z,9.42
2023-04-09T23:18:19.502Z,9.41
2023-04-09T23:23:20.953Z,9.38
2023-04-09T23:28:22.466Z,9.34
2023-04-09T23:33:24.070Z,9.32
2023-04-09T23:38:25.569Z,9.27
2023-04-09T23:43:27.085Z,9.23
2023-04-09T23:48:28.603Z,9.20
2023-04-09T23:53:30.107Z,9.17
2023-04-09T23:58:32.139Z,9.12
